createdAt,value
2018-11-23T00:04:39.565Z,100896.36
2018-11-23T00:09:43.985Z,100901.63
2018-11-23T00:14:48.807Z,100900.88
2018-11-23T00:19:53.260Z,100898.88
2018-11-23T00:24:57.174Z,100906.16
2018-11-23T00:30:01.859Z,100906.34
2018-11-23T00:35:08.330Z,100899.93
2018-11-23T00:40:14.576Z,100907.28
2018-11-23T00:45:18.709Z,100903.80
2018-11-23T00:50:23.639Z,100902.08
2018-11-23T00:55:28.101Z,100900.27
2018-11-23T01:00:33.023Z,100900.53
2018-11-23T01:05:36.894Z,100897.62
2018-11-23T01:10:40.761Z,100897.62
2018-11-23T01:15:44.817Z,100900.33
2018-11-23T01:20:48.622Z,100891.80
2018-11-23T01:25:52.631Z,100892.52
2018-11-23T01:30:56.553Z,100889.16
2018-11-23T01:36:00.634Z,100892.64
2018-11-23T01:41:05.350Z,100890.83
2018-11-23T01:46:09.295Z,100894.98
2018-11-23T01:51:13.189Z,100892.00
2018-11-23T01:56:18.189Z,100890.77
2018-11-23T02:01:22.150Z,100886.67
2018-11-23T02:06:26.116Z,100889.66
2018-11-23T02:11:29.941Z,100886.82
2018-11-23T02:16:33.823Z,100886.95
2018-11-23T02:21:37.908Z,100877.39
2018-11-23T02:26:42.127Z,100867.59
2018-11-23T02:31:46.072Z,100874.69
2018-11-23T02:36:50.057Z,100868.85
2018-11-23T02:41:54.982Z,100875.33
2018-11-23T02:46:58.919Z,100873.30
2018-11-23T02:52:02.900Z,100878.16
2018-11-23T02:57:12.212Z,100869.83
2018-11-23T03:02:16.587Z,100868.51
2018-11-23T03:07:20.701Z,100873.52
2018-11-23T03:12:25.048Z,100868.73
2018-11-23T03:17:29.082Z,100867.26
2018-11-23T03:22:33.704Z,100865.05
2018-11-23T03:27:37.824Z,100868.38
2018-11-23T03:32:41.920Z,100870.95
2018-11-23T03:37:46.084Z,100856.95
2018-11-23T03:42:50.086Z,100857.14
2018-11-23T03:47:53.984Z,100860.90
2018-11-23T03:52:59.190Z,100857.83
2018-11-23T03:58:03.161Z,100857.71
2018-11-23T04:03:07.032Z,100845.77
2018-11-23T04:08:11.161Z,100842.31
2018-11-23T04:13:16.092Z,100844.45
2018-11-23T04:18:20.163Z,100853.05
2018-11-23T04:23:24.226Z,100852.30
2018-11-23T04:28:28.178Z,100846.19
2018-11-23T04:33:32.202Z,100844.80
2018-11-23T04:38:36.375Z,100849.93
2018-11-23T04:43:40.866Z,100845.34
2018-11-23T04:48:50.259Z,100850.00
2018-11-23T04:54:06.331Z,100840.52
2018-11-23T04:59:10.463Z,100850.15
2018-11-23T05:04:14.481Z,100845.83
2018-11-23T05:09:18.415Z,100848.34
2018-11-23T05:14:22.547Z,100853.39
2018-11-23T05:19:27.018Z,100845.15
2018-11-23T05:24:31.180Z,100833.93
2018-11-23T05:29:35.402Z,100840.59
2018-11-23T05:34:40.804Z,100833.66
2018-11-23T05:39:46.063Z,100839.47
2018-11-23T05:44:50.142Z,100838.59
2018-11-23T05:49:53.999Z,100837.80
2018-11-23T05:54:58.056Z,100850.84
2018-11-23T06:00:02.748Z,100850.61
2018-11-23T06:05:07.032Z,100852.49
2018-11-23T06:10:13.952Z,100851.93
2018-11-23T06:15:19.895Z,100852.64
2018-11-23T06:20:25.281Z,100855.95
2018-11-23T06:25:43.356Z,100853.69
2018-11-23T06:30:48.255Z,100856.52
2018-11-23T06:35:52.393Z,100851.55
2018-11-23T06:40:57.191Z,100854.45
2018-11-23T06:46:02.179Z,100853.95
2018-11-23T06:51:06.577Z,100853.09
2018-11-23T06:56:10.920Z,100843.03
2018-11-23T07:01:14.974Z,100849.17
2018-11-23T07:06:19.865Z,100849.06
2018-11-23T07:11:25.398Z,100850.16
2018-11-23T07:16:29.839Z,100856.59
2018-11-23T07:21:34.014Z,100853.97
2018-11-23T07:26:39.511Z,100855.77
2018-11-23T07:31:44.488Z,100850.69
2018-11-23T07:36:48.407Z,100844.81
2018-11-23T07:42:03.262Z,100845.64
2018-11-23T07:47:06.874Z,100839.88
2018-11-23T07:52:10.530Z,100833.77
2018-11-23T07:57:14.067Z,100837.31
2018-11-23T08:02:17.516Z,100842.02
2018-11-23T08:07:21.193Z,100839.98
2018-11-23T08:12:25.569Z,100833.30
2018-11-23T08:17:28.968Z,100832.98
2018-11-23T08:22:33.337Z,100842.03
2018-11-23T08:27:36.893Z,100838.52
2018-11-23T08:32:40.973Z,100845.02
2018-11-23T08:37:45.026Z,100844.80
2018-11-23T08:42:49.616Z,100840.44
2018-11-23T08:47:54.583Z,100832.82
2018-11-23T08:52:58.828Z,100837.20
2018-11-23T08:58:03.468Z,100836.13
2018-11-23T09:03:07.427Z,100836.78
2018-11-23T09:08:11.168Z,100836.81
2018-11-23T09:13:15.165Z,100840.23
2018-11-23T09:18:19.100Z,100838.76
2018-11-23T09:23:22.717Z,100837.23
2018-11-23T09:28:26.344Z,100836.16
2018-11-23T09:33:29.691Z,100830.50
2018-11-23T09:38:32.999Z,100825.73
2018-11-23T09:43:36.293Z,100817.13
2018-11-23T09:48:39.633Z,100807.52
2018-11-23T09:53:42.939Z,100809.22
2018-11-23T09:58:46.262Z,100815.50
2018-11-23T10:03:50.172Z,100803.55
2018-11-23T10:08:54.159Z,100795.73
2018-11-23T10:13:57.465Z,100775.02
2018-11-23T10:19:00.820Z,100778.25
2018-11-23T10:24:04.628Z,100776.19
2018-11-23T10:29:08.394Z,100785.02
2018-11-23T10:34:11.757Z,100782.75
2018-11-23T10:39:15.634Z,100773.76
2018-11-23T10:44:19.025Z,100771.08
2018-11-23T10:49:22.365Z,100768.36
2018-11-23T10:54:25.773Z,100767.89
2018-11-23T10:59:39.875Z,100763.44
2018-11-23T11:04:48.161Z,100764.64
2018-11-23T11:09:51.661Z,100752.60
2018-11-23T11:14:55.079Z,100752.12
2018-11-23T11:19:59.337Z,100737.34
2018-11-23T11:25:04.396Z,100733.09
2018-11-23T11:30:11.540Z,100730.46
2018-11-23T11:35:15.139Z,100717.77
2018-11-23T11:40:19.591Z,100713.48
2018-11-23T11:45:23.297Z,100712.59
2018-11-23T11:50:26.635Z,100713.95
2018-11-23T11:55:30.014Z,100711.81
2018-11-23T12:00:33.371Z,100704.36
2018-11-23T12:05:36.737Z,100689.66
2018-11-23T12:12:23.261Z,100685.27
2018-11-23T12:17:26.618Z,100666.28
2018-11-23T12:22:29.939Z,100668.04
2018-11-23T12:27:33.432Z,100663.84
2018-11-23T12:32:37.089Z,100657.63
2018-11-23T12:37:40.849Z,100651.10
2018-11-23T12:42:44.694Z,100650.31
2018-11-23T12:47:48.067Z,100649.30
2018-11-23T12:52:51.470Z,100649.63
2018-11-23T12:57:54.811Z,100643.06
2018-11-23T13:03:00.496Z,100637.92
2018-11-23T13:08:05.584Z,100630.72
2018-11-23T13:13:09.008Z,100623.47
2018-11-23T13:18:12.514Z,100623.73
2018-11-23T13:23:16.052Z,100615.96
2018-11-23T13:28:19.586Z,100628.44
2018-11-23T13:33:23.196Z,100636.55
2018-11-23T13:38:26.854Z,100630.81
2018-11-23T13:43:30.236Z,100619.42
2018-11-23T13:48:33.697Z,100605.37
2018-11-23T13:53:37.148Z,100611.69
2018-11-23T13:58:40.482Z,100617.98
2018-11-23T14:03:43.935Z,100618.62
2018-11-23T14:08:47.386Z,100615.16
2018-11-23T14:13:50.804Z,100603.41
2018-11-23T14:18:54.167Z,100611.86
2018-11-23T14:23:57.503Z,100612.02
2018-11-23T14:29:00.820Z,100598.11
2018-11-23T14:34:04.301Z,100593.67
2018-11-23T14:39:09.177Z,100588.38
2018-11-23T14:44:12.617Z,100577.62
2018-11-23T14:49:16.119Z,100582.24
2018-11-23T14:54:19.648Z,100577.08
2018-11-23T14:59:23.054Z,100585.66
2018-11-23T15:04:26.902Z,100585.52
2018-11-23T15:09:30.296Z,100584.20
2018-11-23T15:14:33.911Z,100584.85
2018-11-23T15:19:37.554Z,100581.64
2018-11-23T15:24:40.917Z,100588.25
2018-11-23T15:29:44.230Z,100577.50
2018-11-23T15:34:47.894Z,100589.55
2018-11-23T15:39:51.434Z,100589.05
2018-11-23T15:44:54.816Z,100585.19
2018-11-23T15:49:58.128Z,100584.34
2018-11-23T15:55:01.669Z,100587.30
2018-11-23T16:00:09.434Z,100591.23
2018-11-23T16:05:13.302Z,100591.86
2018-11-23T16:10:20.049Z,100579.61
2018-11-23T16:15:23.943Z,100574.80
2018-11-23T16:20:29.832Z,100570.30
2018-11-23T16:25:33.324Z,100559.55
2018-11-23T16:30:39.327Z,100558.19
2018-11-23T16:35:43.380Z,100559.81
2018-11-23T16:40:48.637Z,100555.68
2018-11-23T16:45:52.018Z,100551.02
2018-11-23T16:50:55.395Z,100549.20
2018-11-23T16:55:58.858Z,100540.23
2018-11-23T17:01:02.387Z,100547.45
2018-11-23T17:06:05.949Z,100538.54
2018-11-23T17:11:09.304Z,100530.21
2018-11-23T17:16:12.617Z,100539.78
2018-11-23T17:21:16.048Z,100524.23
2018-11-23T17:26:19.656Z,100519.48
2018-11-23T17:31:23.062Z,100514.53
2018-11-23T17:36:26.518Z,100515.97
2018-11-23T17:41:29.873Z,100507.98
2018-11-23T17:46:33.340Z,100510.41
2018-11-23T17:51:36.815Z,100519.75
2018-11-23T17:56:40.363Z,100515.23
2018-11-23T18:01:43.856Z,100523.47
2018-11-23T18:06:47.275Z,100517.10
2018-11-23T18:11:50.656Z,100507.33
2018-11-23T18:16:54.375Z,100507.64
2018-11-23T18:21:57.861Z,100505.90
2018-11-23T18:27:01.331Z,100504.41
2018-11-23T18:32:04.719Z,100501.72
2018-11-23T18:37:08.131Z,100498.75
2018-11-23T18:42:11.693Z,100490.51
2018-11-23T18:47:15.472Z,100485.47
2018-11-23T18:52:20.672Z,100480.80
2018-11-23T18:57:24.343Z,100469.94
2018-11-23T19:02:27.840Z,100472.97
2018-11-23T19:07:31.544Z,100476.25
2018-11-23T19:12:34.867Z,100473.48
2018-11-23T19:17:38.172Z,100466.17
2018-11-23T19:22:42.477Z,100457.58
2018-11-23T19:27:46.063Z,100444.12
2018-11-23T19:32:49.600Z,100444.02
2018-11-23T19:37:53.212Z,100440.19
2018-11-23T19:42:56.670Z,100430.83
2018-11-23T19:48:00.136Z,100433.47
2018-11-23T19:53:03.644Z,100419.47
2018-11-23T19:58:08.096Z,100423.05
2018-11-23T20:03:11.807Z,100410.31
2018-11-23T20:08:15.140Z,100412.45
2018-11-23T20:13:18.518Z,100409.81
2018-11-23T20:18:21.934Z,100401.09
2018-11-23T20:23:25.248Z,100394.52
2018-11-23T20:28:28.588Z,100385.28
2018-11-23T20:33:32.065Z,100387.10
2018-11-23T20:38:35.384Z,100384.08
2018-11-23T20:43:39.660Z,100378.27
2018-11-23T20:48:43.075Z,100370.43
2018-11-23T20:53:46.390Z,100367.28
2018-11-23T20:58:49.895Z,100357.30
2018-11-23T21:03:53.372Z,100350.32
2018-11-23T21:08:56.691Z,100341.05
2018-11-23T21:14:00.208Z,100333.27
2018-11-23T21:19:03.799Z,100343.46
2018-11-23T21:24:15.505Z,100347.64
2018-11-23T21:29:19.219Z,100345.16
2018-11-23T21:34:22.879Z,100345.88
2018-11-23T21:39:27.461Z,100343.80
2018-11-23T21:44:31.195Z,100340.84
2018-11-23T21:49:34.647Z,100346.46
2018-11-23T21:54:38.301Z,100337.60
2018-11-23T21:59:43.088Z,100339.08
2018-11-23T22:04:46.747Z,100332.93
2018-11-23T22:09:50.208Z,100329.94
2018-11-23T22:14:53.966Z,100324.50
2018-11-23T22:19:57.623Z,100315.08
2018-11-23T22:25:01.385Z,100299.19
2018-11-23T22:30:10.625Z,100297.92
2018-11-23T22:35:14.412Z,100290.17
2018-11-23T22:40:19.091Z,100281.08
2018-11-23T22:45:23.236Z,100286.11
2018-11-23T22:50:27.081Z,100283.66
2018-11-23T22:55:30.741Z,100272.41
2018-11-23T23:00:41.377Z,100268.62
2018-11-23T23:05:45.100Z,100257.78
2018-11-23T23:10:48.488Z,100249.12
2018-11-23T23:15:52.021Z,100231.68
2018-11-23T23:20:55.649Z,100240.84
2018-11-23T23:26:00.119Z,100236.66
2018-11-23T23:31:05.501Z,100239.11
2018-11-23T23:36:11.444Z,100224.36
2018-11-23T23:41:15.044Z,100213.73
2018-11-23T23:46:18.599Z,100201.84
2018-11-23T23:51:22.088Z,100199.14
2018-11-23T23:56:25.459Z,100200.70
